sensor_id;sensor_type;location;lat;lon;timestamp;pressure;altitude;pressure_sealevel;temperature;humidity
65756;BME280;52489;47.502;18.940;2023-03-19T00:00:53;98465.12;;;5.51;59.19
65756;BME280;52489;47.502;18.940;2023-03-19T00:01:56;98462.53;;;5.51;59.20
65756;BME280;52489;47.502;18.940;2023-03-19T00:03:07;98460.44;;;5.53;59.16
65756;BME280;52489;47.502;18.940;2023-03-19T00:04:10;98457.06;;;5.52;59.24
65756;BME280;52489;47.502;18.940;2023-03-19T00:05:12;98458.34;;;5.50;59.14
65756;BME280;52489;47.502;18.940;2023-03-19T00:06:15;98454.75;;;5.56;58.95
65756;BME280;52489;47.502;18.940;2023-03-19T00:07:18;98459.13;;;5.50;59.05
65756;BME280;52489;47.502;18.940;2023-03-19T00:08:21;98451.31;;;5.50;59.01
65756;BME280;52489;47.502;18.940;2023-03-19T00:09:24;98450.56;;;5.50;59.17
65756;BME280;52489;47.502;18.940;2023-03-19T00:10:27;98453.16;;;5.50;59.02
65756;BME280;52489;47.502;18.940;2023-03-19T00:11:30;98450.22;;;5.36;59.47
65756;BME280;52489;47.502;18.940;2023-03-19T00:12:34;98450.81;;;5.48;59.17
65756;BME280;52489;47.502;18.940;2023-03-19T00:13:38;98445.63;;;5.48;59.11
65756;BME280;52489;47.502;18.940;2023-03-19T00:14:41;98448.22;;;5.48;59.18
65756;BME280;52489;47.502;18.940;2023-03-19T00:15:44;98444.78;;;5.37;59.47
65756;BME280;52489;47.502;18.940;2023-03-19T00:16:48;98438.06;;;5.46;59.08
65756;BME280;52489;47.502;18.940;2023-03-19T00:17:51;98434.69;;;5.46;59.10
65756;BME280;52489;47.502;18.940;2023-03-19T00:18:55;98437.25;;;5.36;59.37
65756;BME280;52489;47.502;18.940;2023-03-19T00:19:58;98438.78;;;5.37;59.29
65756;BME280;52489;47.502;18.940;2023-03-19T00:21:01;98437.19;;;5.31;59.41
65756;BME280;52489;47.502;18.940;2023-03-19T00:22:04;98444.53;;;5.44;59.25
65756;BME280;52489;47.502;18.940;2023-03-19T00:23:07;98434.69;;;5.46;58.93
65756;BME280;52489;47.502;18.940;2023-03-19T00:24:10;98430.34;;;5.57;58.63
65756;BME280;52489;47.502;18.940;2023-03-19T00:25:13;98439.69;;;5.58;58.44
65756;BME280;52489;47.502;18.940;2023-03-19T00:26:16;98435.47;;;5.46;58.76
65756;BME280;52489;47.502;18.940;2023-03-19T00:27:19;98427.66;;;5.46;58.89
65756;BME280;52489;47.502;18.940;2023-03-19T00:28:22;98428.94;;;5.44;58.93
65756;BME280;52489;47.502;18.940;2023-03-19T00:29:25;98429.97;;;5.38;59.04
65756;BME280;52489;47.502;18.940;2023-03-19T00:30:28;98426.34;;;5.44;58.85
65756;BME280;52489;47.502;18.940;2023-03-19T00:31:31;98422.75;;;5.45;58.80
65756;BME280;52489;47.502;18.940;2023-03-19T00:32:34;98427.16;;;5.50;58.60
65756;BME280;52489;47.502;18.940;2023-03-19T00:33:38;98438.25;;;5.30;59.34
65756;BME280;52489;47.502;18.940;2023-03-19T00:34:41;98430.69;;;5.28;59.37
65756;BME280;52489;47.502;18.940;2023-03-19T00:35:44;98428.63;;;5.30;59.25
65756;BME280;52489;47.502;18.940;2023-03-19T00:36:48;98429.44;;;5.36;59.20
65756;BME280;52489;47.502;18.940;2023-03-19T00:37:50;98429.97;;;5.38;58.92
65756;BME280;52489;47.502;18.940;2023-03-19T00:38:54;98428.34;;;5.27;59.09
65756;BME280;52489;47.502;18.940;2023-03-19T00:39:58;98422.13;;;5.28;59.25
65756;BME280;52489;47.502;18.940;2023-03-19T00:41:02;98438.94;;;5.20;59.44
65756;BME280;52489;47.502;18.940;2023-03-19T00:42:05;98428.31;;;5.21;59.52
65756;BME280;52489;47.502;18.940;2023-03-19T00:43:08;98426.28;;;5.29;59.47
65756;BME280;52489;47.502;18.940;2023-03-19T00:44:11;98430.63;;;5.18;59.68
65756;BME280;52489;47.502;18.940;2023-03-19T00:45:14;98419.91;;;5.09;59.97
65756;BME280;52489;47.502;18.940;2023-03-19T00:46:17;98420.47;;;5.16;59.63
65756;BME280;52489;47.502;18.940;2023-03-19T00:47:21;98414.50;;;5.16;59.54
65756;BME280;52489;47.502;18.940;2023-03-19T00:48:24;98417.34;;;5.14;59.83
65756;BME280;52489;47.502;18.940;2023-03-19T00:49:26;98418.34;;;5.08;59.97
65756;BME280;52489;47.502;18.940;2023-03-19T00:50:29;98420.12;;;5.02;60.25
65756;BME280;52489;47.502;18.940;2023-03-19T00:51:33;98415.25;;;5.11;60.01
65756;BME280;52489;47.502;18.940;2023-03-19T00:52:35;98409.72;;;4.97;60.40
65756;BME280;52489;47.502;18.940;2023-03-19T00:53:40;98414.38;;;4.95;60.59
65756;BME280;52489;47.502;18.940;2023-03-19T00:54:44;98410.34;;;5.15;59.78
65756;BME280;52489;47.502;18.940;2023-03-19T00:55:47;98411.28;;;4.98;60.35
65756;BME280;52489;47.502;18.940;2023-03-19T00:56:50;98415.25;;;5.11;59.81
65756;BME280;52489;47.502;18.940;2023-03-19T00:57:53;98405.66;;;5.12;59.85
65756;BME280;52489;47.502;18.940;2023-03-19T00:58:55;98416.72;;;4.97;60.33
65756;BME280;52489;47.502;18.940;2023-03-19T00:59:58;98408.44;;;5.00;60.32
65756;BME280;52489;47.502;18.940;2023-03-19T01:01:01;98409.22;;;5.06;60.29
65756;BME280;52489;47.502;18.940;2023-03-19T01:02:04;98419.66;;;5.11;60.11
65756;BME280;52489;47.502;18.940;2023-03-19T01:03:07;98419.88;;;5.04;60.27
65756;BME280;52489;47.502;18.940;2023-03-19T01:04:10;98413.03;;;4.93;60.79
65756;BME280;52489;47.502;18.940;2023-03-19T01:05:13;98416.00;;;5.07;60.33
65756;BME280;52489;47.502;18.940;2023-03-19T01:06:16;98409.28;;;5.11;60.10
65756;BME280;52489;47.502;18.940;2023-03-19T01:07:19;98423.25;;;5.05;60.26
65756;BME280;52489;47.502;18.940;2023-03-19T01:08:22;98422.44;;;4.99;60.30
65756;BME280;52489;47.502;18.940;2023-03-19T01:09:26;98423.19;;;4.94;60.51
65756;BME280;52489;47.502;18.940;2023-03-19T01:10:28;98425.97;;;4.83;60.83
65756;BME280;52489;47.502;18.940;2023-03-19T01:11:31;98415.56;;;4.83;61.15
65756;BME280;52489;47.502;18.940;2023-03-19T01:12:34;98421.94;;;5.02;60.28
65756;BME280;52489;47.502;18.940;2023-03-19T01:13:37;98427.38;;;5.00;60.14
65756;BME280;52489;47.502;18.940;2023-03-19T01:14:40;98426.13;;;5.08;60.03
65756;BME280;52489;47.502;18.940;2023-03-19T01:15:43;98431.16;;;4.88;60.66
65756;BME280;52489;47.502;18.940;2023-03-19T01:16:46;98425.47;;;4.91;60.59
65756;BME280;52489;47.502;18.940;2023-03-19T01:17:49;98435.38;;;4.94;60.51
65756;BME280;52489;47.502;18.940;2023-03-19T01:18:52;98426.03;;;4.93;60.65
65756;BME280;52489;47.502;18.940;2023-03-19T01:19:55;98426.19;;;4.81;60.89
65756;BME280;52489;47.502;18.940;2023-03-19T01:20:58;98424.09;;;4.78;60.89
65756;BME280;52489;47.502;18.940;2023-03-19T01:22:02;98422.53;;;4.77;60.95
65756;BME280;52489;47.502;18.940;2023-03-19T01:23:06;98424.03;;;4.73;61.08
65756;BME280;52489;47.502;18.940;2023-03-19T01:24:09;98422.25;;;4.73;60.92
65756;BME280;52489;47.502;18.940;2023-03-19T01:25:12;98424.50;;;4.65;61.25
65756;BME280;52489;47.502;18.940;2023-03-19T01:26:16;98422.75;;;4.75;61.07
65756;BME280;52489;47.502;18.940;2023-03-19T01:27:19;98422.28;;;4.78;60.86
65756;BME280;52489;47.502;18.940;2023-03-19T01:28:22;98419.06;;;4.66;61.17
65756;BME280;52489;47.502;18.940;2023-03-19T01:29:25;98424.75;;;4.63;61.36
65756;BME280;52489;47.502;18.940;2023-03-19T01:30:28;98423.84;;;4.52;61.76
65756;BME280;52489;47.502;18.940;2023-03-19T01:31:31;98419.50;;;4.58;61.73
65756;BME280;52489;47.502;18.940;2023-03-19T01:32:34;98422.63;;;4.60;61.53
65756;BME280;52489;47.502;18.940;2023-03-19T01:33:36;98423.91;;;4.57;61.55
65756;BME280;52489;47.502;18.940;2023-03-19T01:34:40;98414.03;;;4.54;61.73
65756;BME280;52489;47.502;18.940;2023-03-19T01:35:44;98418.63;;;4.47;61.89
65756;BME280;52489;47.502;18.940;2023-03-19T01:36:49;98412.25;;;4.60;61.51
65756;BME280;52489;47.502;18.940;2023-03-19T01:37:52;98411.72;;;4.58;61.29
65756;BME280;52489;47.502;18.940;2023-03-19T01:38:56;98420.81;;;4.61;61.20
65756;BME280;52489;47.502;18.940;2023-03-19T01:39:58;98415.69;;;4.66;61.08
65756;BME280;52489;47.502;18.940;2023-03-19T01:41:01;98415.41;;;4.62;61.13
65756;BME280;52489;47.502;18.940;2023-03-19T01:42:04;98416.66;;;4.60;61.38
65756;BME280;52489;47.502;18.940;2023-03-19T01:43:22;98420.53;;;4.57;61.22
65756;BME280;52489;47.502;18.940;2023-03-19T01:44:34;98410.09;;;4.52;61.47
65756;BME280;52489;47.502;18.940;2023-03-19T01:45:39;98408.63;;;4.61;60.87
65756;BME280;52489;47.502;18.940;2023-03-19T01:46:42;98407.94;;;4.71;60.40
65756;BME280;52489;47.502;18.940;2023-03-19T01:47:45;98409.94;;;4.64;60.61
65756;BME280;52489;47.502;18.940;2023-03-19T01:48:50;98414.13;;;4.65;60.83
65756;BME280;52489;47.502;18.940;2023-03-19T01:49:55;98414.69;;;4.72;60.59
65756;BME280;52489;47.502;18.940;2023-03-19T01:51:00;98419.31;;;4.65;60.88
65756;BME280;52489;47.502;18.940;2023-03-19T01:52:05;98421.31;;;4.57;61.15
65756;BME280;52489;47.502;18.940;2023-03-19T01:53:11;98415.75;;;4.44;61.45
65756;BME280;52489;47.502;18.940;2023-03-19T01:54:18;98415.50;;;4.45;61.25
65756;BME280;52489;47.502;18.940;2023-03-19T01:55:22;98422.72;;;4.38;61.43
65756;BME280;52489;47.502;18.940;2023-03-19T01:56:34;98410.56;;;4.44;61.20
65756;BME280;52489;47.502;18.940;2023-03-19T01:57:38;98417.31;;;4.45;61.10
65756;BME280;52489;47.502;18.940;2023-03-19T01:58:43;98403.25;;;4.68;60.22
65756;BME280;52489;47.502;18.940;2023-03-19T01:59:51;98413.47;;;4.52;60.60
65756;BME280;52489;47.502;18.940;2023-03-19T02:00:55;98411.97;;;4.56;60.78
65756;BME280;52489;47.502;18.940;2023-03-19T02:02:05;98418.22;;;4.61;60.71
65756;BME280;52489;47.502;18.940;2023-03-19T02:03:13;98415.41;;;4.62;60.79
65756;BME280;52489;47.502;18.940;2023-03-19T02:04:16;98413.53;;;4.57;60.74
65756;BME280;52489;47.502;18.940;2023-03-19T02:05:19;98402.81;;;4.49;60.17
65756;BME280;52489;47.502;18.940;2023-03-19T02:06:28;98403.94;;;4.58;59.72
65756;BME280;52489;47.502;18.940;2023-03-19T02:07:33;98410.22;;;4.62;59.68
65756;BME280;52489;47.502;18.940;2023-03-19T02:08:37;98401.16;;;4.65;59.95
65756;BME280;52489;47.502;18.940;2023-03-19T02:09:40;98395.31;;;4.52;60.60
65756;BME280;52489;47.502;18.940;2023-03-19T02:10:45;98402.66;;;4.61;60.36
65756;BME280;52489;47.502;18.940;2023-03-19T02:11:49;98405.03;;;4.62;60.38
65756;BME280;52489;47.502;18.940;2023-03-19T02:12:52;98407.78;;;4.50;60.99
65756;BME280;52489;47.502;18.940;2023-03-19T02:13:55;98401.00;;;4.49;61.09
65756;BME280;52489;47.502;18.940;2023-03-19T02:14:58;98399.38;;;4.70;59.90
65756;BME280;52489;47.502;18.940;2023-03-19T02:16:01;98391.84;;;4.69;59.69
65756;BME280;52489;47.502;18.940;2023-03-19T02:17:05;98391.09;;;4.73;59.62
65756;BME280;52489;47.502;18.940;2023-03-19T02:18:10;98399.13;;;4.72;59.79
65756;BME280;52489;47.502;18.940;2023-03-19T02:19:21;98400.91;;;4.66;59.96
65756;BME280;52489;47.502;18.940;2023-03-19T02:21:31;98394.16;;;4.65;60.19
65756;BME280;52489;47.502;18.940;2023-03-19T02:22:35;98398.25;;;4.61;60.31
65756;BME280;52489;47.502;18.940;2023-03-19T02:25:08;98396.19;;;4.63;60.04
65756;BME280;52489;47.502;18.940;2023-03-19T02:26:14;98392.44;;;4.49;60.55
65756;BME280;52489;47.502;18.940;2023-03-19T02:27:18;98392.22;;;4.50;60.52
65756;BME280;52489;47.502;18.940;2023-03-19T02:28:21;98398.16;;;4.51;60.40
65756;BME280;52489;47.502;18.940;2023-03-19T02:29:26;98386.81;;;4.57;59.84
65756;BME280;52489;47.502;18.940;2023-03-19T02:30:31;98385.47;;;4.54;60.04
65756;BME280;52489;47.502;18.940;2023-03-19T02:31:35;98392.50;;;4.54;60.18
65756;BME280;52489;47.502;18.940;2023-03-19T02:32:38;98388.84;;;4.50;60.34
65756;BME280;52489;47.502;18.940;2023-03-19T02:33:41;98388.34;;;4.53;60.25
65756;BME280;52489;47.502;18.940;2023-03-19T02:34:43;98389.34;;;4.52;60.23
65756;BME280;52489;47.502;18.940;2023-03-19T02:35:49;98391.44;;;4.55;60.10
65756;BME280;52489;47.502;18.940;2023-03-19T02:36:59;98391.16;;;4.51;60.16
65756;BME280;52489;47.502;18.940;2023-03-19T02:38:04;98385.44;;;4.49;60.05
65756;BME280;52489;47.502;18.940;2023-03-19T02:39:21;98388.13;;;4.60;59.77
65756;BME280;52489;47.502;18.940;2023-03-19T02:40:28;98382.94;;;4.60;59.81
65756;BME280;52489;47.502;18.940;2023-03-19T02:41:36;98387.03;;;4.50;60.25
65756;BME280;52489;47.502;18.940;2023-03-19T02:42:41;98377.03;;;4.37;60.49
65756;BME280;52489;47.502;18.940;2023-03-19T02:43:44;98384.31;;;4.40;60.26
65756;BME280;52489;47.502;18.940;2023-03-19T02:44:47;98383.97;;;4.31;60.80
65756;BME280;52489;47.502;18.940;2023-03-19T02:45:50;98382.31;;;4.47;60.32
65756;BME280;52489;47.502;18.940;2023-03-19T02:46:53;98375.38;;;4.53;59.95
65756;BME280;52489;47.502;18.940;2023-03-19T02:47:56;98380.50;;;4.48;60.08
65756;BME280;52489;47.502;18.940;2023-03-19T02:48:59;98381.22;;;4.38;60.53
65756;BME280;52489;47.502;18.940;2023-03-19T02:50:02;98379.97;;;4.46;60.26
65756;BME280;52489;47.502;18.940;2023-03-19T02:51:05;98387.03;;;4.50;60.16
65756;BME280;52489;47.502;18.940;2023-03-19T02:52:09;98376.34;;;4.47;60.23
65756;BME280;52489;47.502;18.940;2023-03-19T02:53:12;98380.66;;;4.36;60.65
65756;BME280;52489;47.502;18.940;2023-03-19T02:54:15;98376.50;;;4.35;60.50
65756;BME280;52489;47.502;18.940;2023-03-19T02:55:17;98378.69;;;4.48;60.13
65756;BME280;52489;47.502;18.940;2023-03-19T02:56:21;98381.78;;;4.45;60.08
65756;BME280;52489;47.502;18.940;2023-03-19T02:57:24;98378.63;;;4.43;59.95
65756;BME280;52489;47.502;18.940;2023-03-19T02:58:27;98384.50;;;4.61;59.36
65756;BME280;52489;47.502;18.940;2023-03-19T02:59:30;98384.47;;;4.55;59.37
65756;BME280;52489;47.502;18.940;2023-03-19T03:00:33;98389.06;;;4.48;59.64
65756;BME280;52489;47.502;18.940;2023-03-19T03:01:36;98391.38;;;4.45;59.71
65756;BME280;52489;47.502;18.940;2023-03-19T03:02:39;98381.78;;;4.45;59.71
65756;BME280;52489;47.502;18.940;2023-03-19T03:03:42;98384.63;;;4.44;59.82
65756;BME280;52489;47.502;18.940;2023-03-19T03:04:45;98387.75;;;4.46;59.41
65756;BME280;52489;47.502;18.940;2023-03-19T03:05:47;98384.13;;;4.47;59.32
65756;BME280;52489;47.502;18.940;2023-03-19T03:06:50;98384.28;;;4.35;59.89
65756;BME280;52489;47.502;18.940;2023-03-19T03:07:54;98386.19;;;4.45;59.74
65756;BME280;52489;47.502;18.940;2023-03-19T03:08:57;98389.00;;;4.38;59.90
65756;BME280;52489;47.502;18.940;2023-03-19T03:09:59;98394.47;;;4.42;59.89
65756;BME280;52489;47.502;18.940;2023-03-19T03:11:02;98385.91;;;4.41;60.00
65756;BME280;52489;47.502;18.940;2023-03-19T03:12:06;98378.19;;;4.51;59.62
65756;BME280;52489;47.502;18.940;2023-03-19T03:13:08;98387.38;;;4.32;59.94
65756;BME280;52489;47.502;18.940;2023-03-19T03:14:11;98387.13;;;4.33;59.90
65756;BME280;52489;47.502;18.940;2023-03-19T03:15:14;98384.44;;;4.23;60.33
65756;BME280;52489;47.502;18.940;2023-03-19T03:16:17;98379.59;;;4.32;60.05
65756;BME280;52489;47.502;18.940;2023-03-19T03:17:19;98384.09;;;4.42;59.74
65756;BME280;52489;47.502;18.940;2023-03-19T03:18:22;98383.81;;;4.38;59.91
65756;BME280;52489;47.502;18.940;2023-03-19T03:19:25;98386.53;;;4.26;60.26
65756;BME280;52489;47.502;18.940;2023-03-19T03:20:29;98385.16;;;4.19;60.53
65756;BME280;52489;47.502;18.940;2023-03-19T03:21:32;98392.75;;;4.25;60.23
65756;BME280;52489;47.502;18.940;2023-03-19T03:22:37;98394.59;;;4.30;60.12
65756;BME280;52489;47.502;18.940;2023-03-19T03:23:40;98401.25;;;4.21;60.41
65756;BME280;52489;47.502;18.940;2023-03-19T03:24:43;98395.25;;;4.15;60.60
65756;BME280;52489;47.502;18.940;2023-03-19T03:25:50;98391.38;;;4.18;60.50
65756;BME280;52489;47.502;18.940;2023-03-19T03:26:53;98403.06;;;4.20;60.83
65756;BME280;52489;47.502;18.940;2023-03-19T03:27:56;98391.38;;;4.18;60.61
65756;BME280;52489;47.502;18.940;2023-03-19T03:28:59;98390.75;;;4.32;59.93
65756;BME280;52489;47.502;18.940;2023-03-19T03:30:05;98390.00;;;4.37;59.76
65756;BME280;52489;47.502;18.940;2023-03-19T03:31:09;98383.31;;;4.41;59.73
65756;BME280;52489;47.502;18.940;2023-03-19T03:32:13;98391.47;;;4.28;59.97
65756;BME280;52489;47.502;18.940;2023-03-19T03:33:16;98378.91;;;4.42;59.45
65756;BME280;52489;47.502;18.940;2023-03-19T03:34:19;98391.53;;;4.33;59.62
65756;BME280;52489;47.502;18.940;2023-03-19T03:35:22;98391.53;;;4.33;59.87
65756;BME280;52489;47.502;18.940;2023-03-19T03:36:26;98389.44;;;4.08;60.88
65756;BME280;52489;47.502;18.940;2023-03-19T03:37:29;98397.84;;;4.15;60.85
65756;BME280;52489;47.502;18.940;2023-03-19T03:38:32;98398.13;;;4.19;60.71
65756;BME280;52489;47.502;18.940;2023-03-19T03:39:35;98394.56;;;4.25;60.22
65756;BME280;52489;47.502;18.940;2023-03-19T03:40:39;98394.75;;;4.18;60.50
65756;BME280;52489;47.502;18.940;2023-03-19T03:41:43;98391.72;;;4.26;60.19
65756;BME280;52489;47.502;18.940;2023-03-19T03:42:46;98392.37;;;4.17;60.60
65756;BME280;52489;47.502;18.940;2023-03-19T03:43:48;98388.62;;;4.02;61.07
65756;BME280;52489;47.502;18.940;2023-03-19T03:44:51;98382.00;;;4.12;60.80
65756;BME280;52489;47.502;18.940;2023-03-19T03:45:54;98382.28;;;4.15;60.53
65756;BME280;52489;47.502;18.940;2023-03-19T03:46:57;98385.72;;;4.26;60.16
65756;BME280;52489;47.502;18.940;2023-03-19T03:47:59;98391.19;;;4.24;60.05
65756;BME280;52489;47.502;18.940;2023-03-19T03:49:02;98385.66;;;4.16;60.27
65756;BME280;52489;47.502;18.940;2023-03-19T03:50:06;98388.03;;;4.22;60.28
65756;BME280;52489;47.502;18.940;2023-03-19T03:51:09;98391.66;;;4.21;60.07
65756;BME280;52489;47.502;18.940;2023-03-19T03:52:12;98388.31;;;4.21;60.03
65756;BME280;52489;47.502;18.940;2023-03-19T03:53:14;98387.25;;;4.22;60.09
65756;BME280;52489;47.502;18.940;2023-03-19T03:54:18;98389.22;;;4.09;60.71
65756;BME280;52489;47.502;18.940;2023-03-19T03:55:21;98394.28;;;3.99;61.37
65756;BME280;52489;47.502;18.940;2023-03-19T03:56:24;98398.31;;;4.12;60.73
65756;BME280;52489;47.502;18.940;2023-03-19T03:57:27;98392.44;;;4.22;60.33
65756;BME280;52489;47.502;18.940;2023-03-19T03:58:30;98400.00;;;4.23;60.27
65756;BME280;52489;47.502;18.940;2023-03-19T03:59:34;98396.09;;;4.21;60.40
65756;BME280;52489;47.502;18.940;2023-03-19T04:00:36;98395.81;;;4.22;60.30
65756;BME280;52489;47.502;18.940;2023-03-19T04:01:39;98392.72;;;4.20;60.39
65756;BME280;52489;47.502;18.940;2023-03-19T04:02:42;98394.22;;;4.16;60.60
65756;BME280;52489;47.502;18.940;2023-03-19T04:03:45;98384.38;;;3.91;61.52
65756;BME280;52489;47.502;18.940;2023-03-19T04:04:48;98388.81;;;3.96;61.54
65756;BME280;52489;47.502;18.940;2023-03-19T04:05:51;98387.00;;;3.96;61.35
65756;BME280;52489;47.502;18.940;2023-03-19T04:06:54;98390.41;;;4.02;61.28
65756;BME280;52489;47.502;18.940;2023-03-19T04:07:57;98400.22;;;3.95;61.38
65756;BME280;52489;47.502;18.940;2023-03-19T04:09:00;98394.16;;;4.11;61.08
65756;BME280;52489;47.502;18.940;2023-03-19T04:10:04;98397.41;;;4.01;61.32
65756;BME280;52489;47.502;18.940;2023-03-19T04:11:07;98391.69;;;3.99;61.41
65756;BME280;52489;47.502;18.940;2023-03-19T04:12:11;98395.81;;;3.73;62.28
65756;BME280;52489;47.502;18.940;2023-03-19T04:13:14;98399.06;;;3.85;62.06
65756;BME280;52489;47.502;18.940;2023-03-19T04:14:17;98392.06;;;3.86;61.89
65756;BME280;52489;47.502;18.940;2023-03-19T04:15:20;98393.34;;;3.83;61.90
65756;BME280;52489;47.502;18.940;2023-03-19T04:16:23;98391.16;;;3.75;62.19
65756;BME280;52489;47.502;18.940;2023-03-19T04:17:26;98389.25;;;3.65;62.68
65756;BME280;52489;47.502;18.940;2023-03-19T04:18:29;98392.78;;;3.81;62.12
65756;BME280;52489;47.502;18.940;2023-03-19T04:19:32;98384.31;;;3.86;61.92
65756;BME280;52489;47.502;18.940;2023-03-19T04:20:35;98384.72;;;3.78;62.31
65756;BME280;52489;47.502;18.940;2023-03-19T04:21:39;98383.84;;;3.67;62.82
65756;BME280;52489;47.502;18.940;2023-03-19T04:22:43;98371.59;;;3.62;63.02
65756;BME280;52489;47.502;18.940;2023-03-19T04:23:46;98375.03;;;3.68;62.93
65756;BME280;52489;47.502;18.940;2023-03-19T04:24:49;98372.78;;;3.77;62.64
65756;BME280;52489;47.502;18.940;2023-03-19T04:26:00;98371.41;;;3.69;62.84
65756;BME280;52489;47.502;18.940;2023-03-19T04:27:03;98377.19;;;3.76;62.59
65756;BME280;52489;47.502;18.940;2023-03-19T04:28:07;98376.75;;;3.84;62.18
65756;BME280;52489;47.502;18.940;2023-03-19T04:29:10;98376.81;;;3.90;61.99
65756;BME280;52489;47.502;18.940;2023-03-19T04:30:13;98369.28;;;3.88;62.04
65756;BME280;52489;47.502;18.940;2023-03-19T04:31:17;98376.16;;;3.77;62.43
65756;BME280;52489;47.502;18.940;2023-03-19T04:32:20;98375.13;;;3.78;62.45
65756;BME280;52489;47.502;18.940;2023-03-19T04:33:23;98367.47;;;3.67;62.80
65756;BME280;52489;47.502;18.940;2023-03-19T04:34:27;98360.94;;;3.59;63.09
65756;BME280;52489;47.502;18.940;2023-03-19T04:35:30;98369.44;;;3.76;62.66
65756;BME280;52489;47.502;18.940;2023-03-19T04:36:33;98372.84;;;3.60;63.15
65756;BME280;52489;47.502;18.940;2023-03-19T04:37:37;98376.00;;;3.62;63.13
65756;BME280;52489;47.502;18.940;2023-03-19T04:38:40;98371.53;;;3.57;63.29
65756;BME280;52489;47.502;18.940;2023-03-19T04:39:43;98368.44;;;3.60;63.30
65756;BME280;52489;47.502;18.940;2023-03-19T04:40:46;98369.00;;;3.62;63.11
65756;BME280;52489;47.502;18.940;2023-03-19T04:41:50;98370.06;;;3.67;63.00
65756;BME280;52489;47.502;18.940;2023-03-19T04:42:53;98379.53;;;3.56;63.22
65756;BME280;52489;47.502;18.940;2023-03-19T04:43:56;98385.56;;;3.61;63.12
65756;BME280;52489;47.502;18.940;2023-03-19T04:44:59;98378.03;;;3.60;63.15
65756;BME280;52489;47.502;18.940;2023-03-19T04:46:02;98389.53;;;3.47;63.56
65756;BME280;52489;47.502;18.940;2023-03-19T04:47:05;98387.06;;;3.57;63.07
65756;BME280;52489;47.502;18.940;2023-03-19T04:48:08;98378.50;;;3.57;62.81
65756;BME280;52489;47.502;18.940;2023-03-19T04:49:11;98389.16;;;3.60;62.93
65756;BME280;52489;47.502;18.940;2023-03-19T04:50:14;98393.53;;;3.77;62.60
65756;BME280;52489;47.502;18.940;2023-03-19T04:51:18;98386.72;;;3.71;62.61
65756;BME280;52489;47.502;18.940;2023-03-19T04:52:23;98394.97;;;3.68;62.72
65756;BME280;52489;47.502;18.940;2023-03-19T04:53:26;98401.72;;;3.69;62.73
65756;BME280;52489;47.502;18.940;2023-03-19T04:54:31;98396.72;;;3.62;62.96
65756;BME280;52489;47.502;18.940;2023-03-19T04:55:34;98389.25;;;3.65;63.02
65756;BME280;52489;47.502;18.940;2023-03-19T04:56:37;98395.94;;;3.61;63.12
65756;BME280;52489;47.502;18.940;2023-03-19T04:57:40;98403.81;;;3.50;63.58
65756;BME280;52489;47.502;18.940;2023-03-19T04:58:44;98398.34;;;3.46;63.67
65756;BME280;52489;47.502;18.940;2023-03-19T04:59:47;98395.69;;;3.41;63.87
65756;BME280;52489;47.502;18.940;2023-03-19T05:00:50;98393.50;;;3.55;63.55
65756;BME280;52489;47.502;18.940;2023-03-19T05:01:54;98383.56;;;3.47;63.62
65756;BME280;52489;47.502;18.940;2023-03-19T05:02:57;98385.81;;;3.60;63.01
65756;BME280;52489;47.502;18.940;2023-03-19T05:04:00;98391.91;;;3.71;62.59
65756;BME280;52489;47.502;18.940;2023-03-19T05:05:10;98386.47;;;3.72;62.59
65756;BME280;52489;47.502;18.940;2023-03-19T05:06:15;98396.09;;;3.55;63.40
65756;BME280;52489;47.502;18.940;2023-03-19T05:07:19;98395.94;;;3.61;63.25
65756;BME280;52489;47.502;18.940;2023-03-19T05:08:22;98395.16;;;3.61;63.27
65756;BME280;52489;47.502;18.940;2023-03-19T05:09:25;98401.03;;;3.56;63.26
65756;BME280;52489;47.502;18.940;2023-03-19T05:10:29;98400.75;;;3.53;63.50
65756;BME280;52489;47.502;18.940;2023-03-19T05:11:32;98401.34;;;3.60;63.38
65756;BME280;52489;47.502;18.940;2023-03-19T05:12:35;98399.97;;;3.52;63.70
65756;BME280;52489;47.502;18.940;2023-03-19T05:13:38;98400.00;;;3.57;63.54
65756;BME280;52489;47.502;18.940;2023-03-19T05:14:41;98395.47;;;3.64;63.32
65756;BME280;52489;47.502;18.940;2023-03-19T05:15:44;98405.25;;;3.40;64.19
65756;BME280;52489;47.502;18.940;2023-03-19T05:16:48;98405.19;;;3.18;65.00
65756;BME280;52489;47.502;18.940;2023-03-19T05:17:51;98401.72;;;3.30;64.79
65756;BME280;52489;47.502;18.940;2023-03-19T05:18:54;98408.53;;;3.53;63.89
65756;BME280;52489;47.502;18.940;2023-03-19T05:19:58;98399.50;;;3.55;63.67
65756;BME280;52489;47.502;18.940;2023-03-19T05:21:01;98405.53;;;3.61;63.43
65756;BME280;52489;47.502;18.940;2023-03-19T05:22:04;98403.84;;;3.55;63.54
65756;BME280;52489;47.502;18.940;2023-03-19T05:23:07;98410.94;;;3.59;63.46
65756;BME280;52489;47.502;18.940;2023-03-19T05:24:10;98406.22;;;3.56;63.49
65756;BME280;52489;47.502;18.940;2023-03-19T05:25:14;98403.56;;;3.51;63.79
65756;BME280;52489;47.502;18.940;2023-03-19T05:26:18;98405.94;;;3.53;63.74
65756;BME280;52489;47.502;18.940;2023-03-19T05:27:21;98400.78;;;3.58;63.60
65756;BME280;52489;47.502;18.940;2023-03-19T05:28:24;98405.81;;;3.64;63.30
65756;BME280;52489;47.502;18.940;2023-03-19T05:29:27;98401.63;;;3.63;63.47
65756;BME280;52489;47.502;18.940;2023-03-19T05:30:30;98401.59;;;3.58;63.46
65756;BME280;52489;47.502;18.940;2023-03-19T05:31:33;98395.59;;;3.58;63.57
65756;BME280;52489;47.502;18.940;2023-03-19T05:32:37;98406.16;;;3.51;63.71
65756;BME280;52489;47.502;18.940;2023-03-19T05:33:42;98410.63;;;3.56;63.78
65756;BME280;52489;47.502;18.940;2023-03-19T05:34:45;98407.47;;;3.54;63.85
65756;BME280;52489;47.502;18.940;2023-03-19T05:35:48;98407.37;;;3.65;63.50
65756;BME280;52489;47.502;18.940;2023-03-19T05:36:53;98410.50;;;3.68;63.48
65756;BME280;52489;47.502;18.940;2023-03-19T05:37:57;98417.06;;;3.75;63.18
65756;BME280;52489;47.502;18.940;2023-03-19T05:39:00;98407.63;;;3.64;63.48
65756;BME280;52489;47.502;18.940;2023-03-19T05:40:05;98418.78;;;3.64;63.48